Time;durP1;ratioP1;P1;durP2;ratioP2;P2;SDS_P1;SDS_P2;PMS_P1;PMS_P2;Temp;Humidity;BMP_temperature;BMP_pressure;BME280_temperature;BME280_humidity;BME280_pressure;Samples;Min_cycle;Max_cycle;Signal;HPM_P1;HPM_P2
2021/12/26 00:01:10;;;;;;;8.55;5.08;;;;;;;-4.14;82.43;100809.55;1665376;86;21123;-84
2021/12/26 00:03:37;;;;;;;9.88;4.42;;;;;;;-4.16;82.35;100804.27;1664630;84;21198;-84
2021/12/26 00:06:07;;;;;;;7.25;4.10;;;;;;;-4.19;82.37;100801.44;1646184;86;21735;-84
2021/12/26 00:08:35;;;;;;;9.85;4.25;;;;;;;-4.17;82.51;100800.28;1665472;84;21114;-85
2021/12/26 00:11:02;;;;;;;9.90;4.72;;;;;;;-4.15;82.61;100798.38;1665325;85;22035;-85
2021/12/26 00:13:32;;;;;;;12.65;4.83;;;;;;;-4.13;82.62;100804.55;1665440;86;21147;-85
2021/12/26 00:16:01;;;;;;;8.38;4.47;;;;;;;-4.11;82.70;100799.14;1665460;84;21091;-85
2021/12/26 00:18:27;;;;;;;13.55;4.90;;;;;;;-4.08;82.65;100804.02;1665516;85;21103;-85
2021/12/26 00:20:54;;;;;;;10.98;4.37;;;;;;;-4.10;82.63;100803.50;1665682;84;21362;-87
2021/12/26 00:23:21;;;;;;;9.90;4.37;;;;;;;-4.08;82.66;100810.45;1665637;86;21726;-86
2021/12/26 00:25:48;;;;;;;12.63;5.47;;;;;;;-4.07;82.69;100805.45;1665351;86;22365;-84
2021/12/26 00:28:15;;;;;;;11.05;5.08;;;;;;;-4.05;82.67;100815.47;1665125;86;21119;-85
2021/12/26 00:30:42;;;;;;;14.73;4.95;;;;;;;-4.06;82.63;100807.63;1665351;86;21124;-86
2021/12/26 00:33:08;;;;;;;12.13;5.15;;;;;;;-4.09;82.60;100813.42;1665199;84;21647;-86
2021/12/26 00:35:35;;;;;;;10.28;4.50;;;;;;;-4.10;82.65;100810.32;1665812;84;21785;-86
2021/12/26 00:38:04;;;;;;;10.30;5.08;;;;;;;-4.10;82.68;100810.32;1665796;86;21107;-85
2021/12/26 00:40:33;;;;;;;9.75;5.22;;;;;;;-4.10;82.69;100807.75;1665597;85;21083;-85
2021/12/26 00:42:59;;;;;;;9.35;4.67;;;;;;;;;;1665478;84;21144;-85
2021/12/26 00:45:26;;;;;;;11.95;4.72;;;;;;;-4.12;82.78;100811.47;1665454;84;21080;-85
2021/12/26 00:47:52;;;;;;;9.35;4.75;;;;;;;-4.13;82.77;100816.11;1664981;84;21236;-85
2021/12/26 00:50:29;;;;;;;12.13;5.33;;;;;;;-4.15;82.78;100813.80;1665141;84;21136;-85
2021/12/26 00:52:57;;;;;;;11.28;5.15;;;;;;;-4.16;82.81;100819.70;1664881;84;21551;-86
2021/12/26 00:55:23;;;;;;;10.88;5.15;;;;;;;-4.18;82.77;100816.10;1664966;84;21291;-85
2021/12/26 00:57:50;;;;;;;11.12;5.08;;;;;;;-4.18;82.83;100817.39;1664862;84;21317;-78
2021/12/26 01:00:24;;;;;;;14.35;6.17;;;;;;;-4.20;82.85;100818.93;1664316;86;21753;-85
2021/12/26 01:02:51;;;;;;;20.92;6.53;;;;;;;-4.19;82.96;100814.28;1665548;84;21311;-77
2021/12/26 01:05:19;;;;;;;12.75;5.97;;;;;;;-4.20;82.93;100820.61;1665061;86;21111;-77
2021/12/26 01:07:58;;;;;;;14.33;5.87;;;;;;;-4.21;82.98;100822.25;1665517;86;21627;-86
2021/12/26 01:10:21;;;;;;;11.10;5.37;;;;;;;-4.31;83.02;100799.13;1664059;85;21056;-86
2021/12/26 01:12:48;;;;;;;13.70;5.28;;;;;;;-4.21;83.09;100827.39;1665518;84;21739;-85
2021/12/26 01:15:15;;;;;;;14.98;5.00;;;;;;;-4.20;83.15;100825.36;1665075;84;21096;-86
2021/12/26 01:17:44;;;;;;;13.90;5.03;;;;;;;-4.19;83.21;100822.00;1664952;86;21131;-77
2021/12/26 01:20:18;;;;;;;12.35;5.53;;;;;;;-4.18;83.21;100815.21;1659259;85;22216;-77
2021/12/26 01:22:44;;;;;;;13.90;5.70;;;;;;;-4.19;83.24;100814.28;1657196;86;21119;-78
2021/12/26 01:25:11;;;;;;;15.25;5.55;;;;;;;-4.19;83.30;100809.54;1658278;85;21783;-85
2021/12/26 01:27:38;;;;;;;15.05;6.03;;;;;;;-4.18;83.37;100808.78;1665311;84;21099;-84
2021/12/26 01:30:06;;;;;;;14.00;4.97;;;;;;;-4.18;83.41;100801.08;1664957;85;21098;-86
2021/12/26 01:32:32;;;;;;;13.58;6.50;;;;;;;-4.17;83.40;100801.57;1665285;86;21112;-85
2021/12/26 01:34:59;;;;;;;15.18;6.65;;;;;;;-4.18;83.39;100799.39;1664859;85;21257;-85
2021/12/26 01:37:25;;;;;;;13.38;6.33;;;;;;;-4.17;83.39;100797.72;1665340;86;21834;-86
2021/12/26 01:39:52;;;;;;;11.63;7.03;;;;;;;-4.17;83.42;100796.43;1665411;86;21127;-86
2021/12/26 01:42:19;;;;;;;12.35;5.97;;;;;;;-4.14;83.58;100800.55;1665437;86;22285;-85
2021/12/26 01:44:48;;;;;;;10.05;5.87;;;;;;;-4.11;83.72;100799.14;1664795;84;21115;-85
2021/12/26 01:47:14;;;;;;;12.55;6.33;;;;;;;-4.07;83.82;100801.59;1665299;84;21115;-86
2021/12/26 01:49:41;;;;;;;13.38;5.45;;;;;;;-4.05;83.88;100793.62;1665420;85;21775;-86
2021/12/26 01:52:07;;;;;;;11.97;6.05;;;;;;;-4.03;83.89;100798.89;1665453;85;21080;-86
2021/12/26 01:54:46;;;;;;;14.25;5.92;;;;;;;-4.04;83.86;100795.80;1665687;85;21106;-86
2021/12/26 01:57:10;;;;;;;9.08;5.72;;;;;;;-4.06;83.87;100790.52;1664232;85;21080;-87
2021/12/26 01:59:41;;;;;;;14.93;6.60;;;;;;;-4.07;83.86;100799.37;1664841;85;21107;-85
2021/12/26 02:02:08;;;;;;;15.25;6.22;;;;;;;-4.08;83.94;100794.63;1664766;85;22535;-85
2021/12/26 02:04:43;;;;;;;12.55;6.05;;;;;;;-4.09;83.97;100796.70;1664672;86;21088;-84
2021/12/26 02:07:10;;;;;;;14.18;6.20;;;;;;;-4.11;84.01;100796.58;1648081;86;21120;-84
2021/12/26 02:09:37;;;;;;;13.35;6.17;;;;;;;-4.11;84.06;100805.94;1605958;89;21349;-84
2021/12/26 02:12:05;;;;;;;17.52;9.25;;;;;;;-4.11;84.12;100807.22;1613371;87;21109;-84
2021/12/26 02:14:31;;;;;;;36.77;14.40;;;;;;;-4.11;84.14;100809.42;1657729;85;21763;-84
2021/12/26 02:16:58;;;;;;;39.35;16.90;;;;;;;-4.13;84.09;100812.26;1664580;86;21138;-84
2021/12/26 02:19:25;;;;;;;29.32;13.65;;;;;;;-4.13;84.17;100804.55;1634121;86;21149;-85
2021/12/26 02:22:12;;;;;;;21.77;11.12;;;;;;;-4.14;84.21;100800.16;1643496;87;22079;-85
2021/12/26 02:27:31;;;;;;;13.60;6.37;;;;;;;-4.22;84.36;100779.71;1674857;84;21785;-86
2021/12/26 02:30:00;;;;;;;9.73;5.75;;;;;;;-4.11;84.44;100795.29;1674734;85;21064;-85
2021/12/26 02:32:28;;;;;;;15.80;6.10;;;;;;;-4.10;84.54;100802.21;1674379;84;21131;-77
2021/12/26 02:34:55;;;;;;;9.60;4.95;;;;;;;-4.07;84.62;100801.95;1674535;84;21091;-76
2021/12/26 02:37:22;;;;;;;10.28;4.55;;;;;;;-4.06;84.60;100803.77;1674890;84;21149;-77
2021/12/26 02:39:49;;;;;;;10.28;5.30;;;;;;;-4.04;84.69;100795.40;1674597;84;21753;-76
2021/12/26 02:42:20;;;;;;;10.95;5.00;;;;;;;-4.04;84.69;100795.80;1674417;85;21095;-76
2021/12/26 02:44:47;;;;;;;11.35;5.15;;;;;;;-4.02;84.74;100795.53;1674582;84;21547;-76
2021/12/26 02:47:14;;;;;;;12.30;5.35;;;;;;;-4.01;84.71;100798.23;1674400;85;21135;-77
2021/12/26 02:49:43;;;;;;;13.00;4.83;;;;;;;-3.99;84.78;100797.08;1674567;85;21135;-76
2021/12/26 02:52:09;;;;;;;10.65;4.22;;;;;;;-3.99;84.73;100797.08;1674609;84;21774;-77
2021/12/26 02:54:36;;;;;;;10.30;4.78;;;;;;;-3.98;84.76;100798.50;1674765;85;21146;-77
2021/12/26 02:57:03;;;;;;;8.15;4.33;;;;;;;-3.97;84.75;100805.43;1674371;84;21174;-77
2021/12/26 02:59:31;;;;;;;14.43;4.62;;;;;;;-3.97;84.72;100805.83;1673791;84;21153;-76
2021/12/26 03:01:58;;;;;;;8.30;3.85;;;;;;;-3.95;84.79;100799.13;1674742;84;21413;-77
2021/12/26 03:04:24;;;;;;;9.28;4.33;;;;;;;-3.92;84.84;100799.41;1674732;84;21784;-76
2021/12/26 03:07:05;;;;;;;9.90;4.37;;;;;;;-3.90;84.91;100801.71;1674519;84;21088;-77
2021/12/26 03:09:40;;;;;;;5.97;3.67;;;;;;;-3.87;84.87;100799.37;1673040;85;21093;-77
2021/12/26 03:12:01;;;;;;;9.83;4.58;;;;;;;-3.84;84.88;100801.32;1673205;84;21247;-77
2021/12/26 03:14:27;;;;;;;8.48;4.08;;;;;;;-3.85;84.89;100797.83;1674394;84;21479;-77
2021/12/26 03:16:54;;;;;;;8.48;4.03;;;;;;;-3.81;84.91;100800.27;1674588;84;21796;-77
2021/12/26 03:19:21;;;;;;;12.75;5.20;;;;;;;-3.81;84.87;100803.77;1672686;84;21102;-77
2021/12/26 03:21:51;;;;;;;11.60;4.17;;;;;;;-3.78;84.91;100808.25;1642599;87;22406;-77
2021/12/26 03:24:18;;;;;;;10.53;3.60;;;;;;;-3.76;84.91;100807.59;1642948;86;21186;-77
2021/12/26 03:26:44;;;;;;;10.88;4.35;;;;;;;-3.74;84.90;100815.05;1643571;86;21101;-77
2021/12/26 03:29:11;;;;;;;12.85;4.03;;;;;;;-3.71;84.95;100814.42;1643277;87;21854;-77
2021/12/26 03:31:39;;;;;;;8.15;3.75;;;;;;;-3.69;84.96;100813.27;1643312;86;21097;-77
2021/12/26 03:34:05;;;;;;;9.20;3.60;;;;;;;-3.67;84.96;100810.42;1643433;85;21129;-77
2021/12/26 03:36:32;;;;;;;8.65;3.90;;;;;;;-3.63;85.01;100812.48;1643492;86;21182;-77
2021/12/26 03:38:59;;;;;;;8.70;3.55;;;;;;;-3.59;85.08;100811.55;1642961;86;21144;-77
2021/12/26 03:41:25;;;;;;;11.18;3.52;;;;;;;-3.56;85.07;100808.35;1643637;86;21691;-77
2021/12/26 03:43:52;;;;;;;10.58;3.12;;;;;;;-3.55;85.01;100802.41;1642899;85;21117;-77
2021/12/26 03:46:19;;;;;;;10.25;4.03;;;;;;;-3.53;85.01;100809.87;1643298;87;21116;-77
2021/12/26 03:48:45;;;;;;;8.28;3.47;;;;;;;-3.52;84.96;100812.57;1643540;86;21096;-78
2021/12/26 03:51:12;;;;;;;8.28;3.25;;;;;;;-3.50;84.97;100811.41;1643550;87;21569;-77
2021/12/26 03:53:39;;;;;;;7.87;3.52;;;;;;;-3.49;84.94;100815.80;1642833;85;21723;-77
2021/12/26 03:56:06;;;;;;;6.55;3.12;;;;;;;-3.47;84.98;100819.40;1643289;86;21176;-77
2021/12/26 03:58:32;;;;;;;9.85;3.67;;;;;;;-3.48;84.90;100818.88;1643644;86;21092;-77
2021/12/26 04:00:59;;;;;;;6.83;3.27;;;;;;;-3.44;84.99;100821.31;1642905;86;21259;-78
2021/12/26 04:03:26;;;;;;;5.67;2.98;;;;;;;-3.43;84.97;100822.73;1642820;86;21128;-78
2021/12/26 04:05:52;;;;;;;7.12;3.72;;;;;;;-3.42;84.94;100821.05;1642641;86;21819;-77
2021/12/26 04:08:19;;;;;;;11.60;3.70;;;;;;;-3.40;84.91;100822.06;1642652;86;21590;-78
2021/12/26 04:10:46;;;;;;;7.72;2.87;;;;;;;-3.41;84.90;100822.46;1642710;86;21108;-77
2021/12/26 04:13:12;;;;;;;11.05;3.67;;;;;;;-3.40;84.87;100822.06;1642385;87;21720;-77
2021/12/26 04:15:41;;;;;;;9.23;3.52;;;;;;;-3.44;84.87;100811.91;1642659;86;21089;-77
2021/12/26 04:18:08;;;;;;;11.22;3.83;;;;;;;-3.39;84.83;100818.73;1642696;86;21793;-77
2021/12/26 04:20:36;;;;;;;6.97;2.60;;;;;;;-3.38;84.85;100825.66;1647865;85;21109;-77
2021/12/26 04:23:03;;;;;;;6.70;2.83;;;;;;;-3.39;84.82;100828.62;1656784;85;21258;-77
2021/12/26 04:25:30;;;;;;;7.05;3.05;;;;;;;-3.39;84.80;100825.17;1657056;84;21165;-77
2021/12/26 04:27:56;;;;;;;11.05;3.52;;;;;;;-3.38;84.80;100833.02;1657178;85;21184;-77
2021/12/26 04:30:25;;;;;;;8.45;3.12;;;;;;;-3.40;84.73;100830.67;1656972;86;21781;-78
2021/12/26 04:32:51;;;;;;;7.70;2.87;;;;;;;-3.40;84.74;100836.22;1657815;86;21160;-78
2021/12/26 04:35:18;;;;;;;8.15;3.08;;;;;;;-3.40;84.73;100830.67;1657662;84;21104;-77
2021/12/26 04:37:45;;;;;;;6.25;2.72;;;;;;;-3.41;84.74;100826.72;1657731;85;21250;-77
2021/12/26 04:40:13;;;;;;;9.45;3.22;;;;;;;-3.41;84.75;100823.75;1657718;86;21183;-78
2021/12/26 04:42:43;;;;;;;9.25;3.05;;;;;;;-3.42;84.76;100825.80;1637454;85;41061;-78
2021/12/26 04:45:09;;;;;;;6.80;3.47;;;;;;;-3.41;84.80;100819.89;1657039;86;21605;-79
2021/12/26 04:47:37;;;;;;;8.35;3.10;;;;;;;-3.39;84.79;100818.73;1657902;86;21112;-77
2021/12/26 04:50:07;;;;;;;5.15;3.08;;;;;;;-3.39;84.82;100823.48;1657063;86;21736;-77
2021/12/26 04:52:34;;;;;;;9.30;3.40;;;;;;;-3.45;84.80;100808.84;1657558;86;21104;-77
2021/12/26 04:55:02;;;;;;;9.23;3.30;;;;;;;-3.38;84.80;100830.81;1657584;84;21759;-77
2021/12/26 04:57:29;;;;;;;9.58;2.85;;;;;;;-3.40;84.77;100824.64;1656757;84;21127;-77
2021/12/26 04:59:55;;;;;;;7.10;3.17;;;;;;;-3.40;84.80;100830.67;1657251;86;21132;-77
2021/12/26 05:02:22;;;;;;;8.00;3.47;;;;;;;-3.39;84.84;100833.78;1657404;86;21096;-77
2021/12/26 05:04:49;;;;;;;7.30;3.12;;;;;;;-3.38;84.81;100845.89;1657436;84;21716;-77
2021/12/26 05:07:15;;;;;;;5.65;3.02;;;;;;;-3.37;84.79;100848.95;1657069;84;21813;-77
2021/12/26 05:09:45;;;;;;;9.03;3.37;;;;;;;-3.40;84.83;100849.98;1656987;85;21285;-77
2021/12/26 05:12:11;;;;;;;6.22;2.72;;;;;;;-3.35;84.87;100842.66;1656865;84;21164;-79
2021/12/26 05:14:38;;;;;;;7.70;3.42;;;;;;;-3.37;84.85;100848.95;1657004;85;21186;-77
2021/12/26 05:17:04;;;;;;;7.12;2.77;;;;;;;-3.35;84.82;100846.12;1657526;85;21115;-77
2021/12/26 05:19:31;;;;;;;4.75;3.12;;;;;;;-3.36;84.75;100844.34;1657899;85;22633;-78
2021/12/26 05:21:58;;;;;;;5.72;2.98;;;;;;;-3.37;84.75;100848.06;1642129;86;21157;-78
2021/12/26 05:24:25;;;;;;;8.63;3.10;;;;;;;-3.37;84.78;100848.06;1637992;87;21149;-78
2021/12/26 05:26:51;;;;;;;9.63;3.45;;;;;;;-3.39;84.75;100838.92;1638242;87;21224;-79
2021/12/26 05:29:18;;;;;;;7.20;2.98;;;;;;;-3.39;84.70;100841.90;1638946;87;21113;-78
2021/12/26 05:31:44;;;;;;;8.90;3.55;;;;;;;-3.40;84.73;100845.23;1639151;86;22744;-78
2021/12/26 05:34:11;;;;;;;8.38;3.25;;;;;;;-3.42;84.67;100848.06;1639109;87;21129;-77
2021/12/26 05:36:38;;;;;;;9.30;3.77;;;;;;;-3.44;84.63;100846.65;1639297;87;21078;-77
2021/12/26 05:39:04;;;;;;;6.92;3.62;;;;;;;-3.45;84.61;100846.52;1639070;87;21199;-78
2021/12/26 05:41:32;;;;;;;7.62;3.20;;;;;;;-3.45;84.67;100841.38;1639250;87;21105;-77
2021/12/26 05:44:00;;;;;;;9.68;3.42;;;;;;;-3.45;84.67;100850.02;1638659;87;21979;-77
2021/12/26 05:46:26;;;;;;;8.33;3.58;;;;;;;-3.46;84.69;100848.20;1638367;87;21116;-78
2021/12/26 05:48:53;;;;;;;9.75;4.03;;;;;;;-3.45;84.70;100855.16;1638814;87;21112;-78
2021/12/26 05:51:20;;;;;;;8.15;3.35;;;;;;;-3.45;84.74;100854.23;1639371;86;21124;-78
2021/12/26 05:53:46;;;;;;;10.03;3.45;;;;;;;-3.45;84.76;100855.16;1639576;86;21736;-77
2021/12/26 05:56:13;;;;;;;9.00;3.83;;;;;;;-3.45;84.72;100864.53;1639364;87;22555;-77
2021/12/26 05:58:39;;;;;;;6.87;3.52;;;;;;;-3.46;84.70;100858.49;1639217;86;21166;-77
2021/12/26 06:01:06;;;;;;;8.48;3.80;;;;;;;-3.46;84.77;100855.92;1638833;86;21129;-77
2021/12/26 06:03:33;;;;;;;10.23;3.98;;;;;;;-3.47;84.75;100852.85;1638941;86;22411;-77
2021/12/26 06:05:59;;;;;;;7.95;3.90;;;;;;;-3.46;84.76;100857.20;1638298;87;21073;-78
2021/12/26 06:08:26;;;;;;;14.23;4.17;;;;;;;-3.47;84.75;100863.51;1638037;87;22433;-77
2021/12/26 06:10:53;;;;;;;8.05;3.87;;;;;;;-3.46;84.83;100864.92;1638234;86;21081;-79
2021/12/26 06:13:20;;;;;;;9.58;4.22;;;;;;;-3.44;84.83;100863.77;1638973;87;21108;-77
2021/12/26 06:15:47;;;;;;;6.95;4.22;;;;;;;-3.44;84.85;100868.92;1638244;87;21155;-77
2021/12/26 06:18:13;;;;;;;12.30;4.35;;;;;;;-3.44;84.84;100868.92;1638721;86;21653;-76
2021/12/26 06:20:40;;;;;;;11.35;4.08;;;;;;;-3.45;84.84;100869.67;1638617;86;21760;-77
2021/12/26 06:23:07;;;;;;;10.20;5.00;;;;;;;-3.45;84.85;100870.97;1638435;87;21128;-76
2021/12/26 06:25:34;;;;;;;12.78;5.22;;;;;;;-3.46;84.88;100868.78;1638336;87;21101;-76
2021/12/26 06:28:01;;;;;;;13.22;6.70;;;;;;;-3.48;84.83;100866.48;1639264;86;21124;-77
2021/12/26 06:30:28;;;;;;;9.58;5.05;;;;;;;-3.48;84.80;100868.16;1638393;86;21625;-77
2021/12/26 06:32:55;;;;;;;8.13;4.78;;;;;;;-3.49;84.81;100872.77;1638379;87;21740;-78
2021/12/26 06:35:22;;;;;;;13.45;5.12;;;;;;;-3.60;84.80;100864.19;1638334;87;21335;-77
2021/12/26 06:37:48;;;;;;;11.70;5.53;;;;;;;-3.54;84.79;100868.55;1638576;86;21602;-77
2021/12/26 06:40:15;;;;;;;9.70;4.95;;;;;;;-3.53;84.85;100876.77;1638603;86;21473;-77
2021/12/26 06:42:43;;;;;;;11.28;4.47;;;;;;;-3.52;84.93;100885.02;1638647;86;21196;-77
2021/12/26 06:45:14;;;;;;;10.78;4.70;;;;;;;-3.49;85.04;100890.79;1639089;87;21950;-77
2021/12/26 06:47:42;;;;;;;9.33;4.65;;;;;;;-3.47;85.08;100882.45;1638444;86;21109;-76
2021/12/26 06:50:09;;;;;;;8.88;4.65;;;;;;;-3.46;85.08;100885.52;1637808;86;21153;-77
2021/12/26 06:52:36;;;;;;;8.08;4.37;;;;;;;-3.44;85.07;100896.83;1637896;86;21810;-76
2021/12/26 06:55:03;;;;;;;10.23;4.47;;;;;;;-3.46;85.10;100890.66;1638646;86;21145;-77
2021/12/26 06:57:30;;;;;;;11.97;4.80;;;;;;;-3.42;85.04;100898.25;1638375;86;21757;-77
2021/12/26 06:59:57;;;;;;;9.38;4.53;;;;;;;-3.43;85.03;100901.62;1638554;86;21109;-77
2021/12/26 07:02:23;;;;;;;7.87;4.87;;;;;;;-3.43;85.06;100905.08;1638975;86;21673;-76
2021/12/26 07:04:50;;;;;;;11.10;5.20;;;;;;;-3.41;85.05;100907.79;1638965;87;21085;-77
2021/12/26 07:07:16;;;;;;;14.28;5.87;;;;;;;-3.41;85.04;100906.11;1638689;86;21475;-77
2021/12/26 07:09:43;;;;;;;10.93;5.05;;;;;;;-3.42;85.03;100907.26;1638865;87;22588;-78
2021/12/26 07:12:13;;;;;;;12.98;5.75;;;;;;;-3.42;85.06;100909.44;1638780;86;21132;-80
2021/12/26 07:14:41;;;;;;;12.50;5.85;;;;;;;-3.42;85.03;100904.69;1639266;86;21093;-80
2021/12/26 07:17:10;;;;;;;11.12;4.97;;;;;;;-3.43;84.97;100919.23;1639320;86;21160;-79
2021/12/26 07:19:37;;;;;;;7.90;4.83;;;;;;;-3.43;85.00;100923.09;1638815;86;21112;-79
2021/12/26 07:22:04;;;;;;;12.60;5.62;;;;;;;-3.43;84.98;100920.52;1659396;84;21765;-80
2021/12/26 07:24:32;;;;;;;14.75;6.10;;;;;;;-3.41;85.07;100926.69;1690370;84;21126;-79
2021/12/26 07:26:58;;;;;;;10.85;5.40;;;;;;;-3.41;85.01;100924.52;1690811;84;21323;-78
2021/12/26 07:29:25;;;;;;;9.45;5.50;;;;;;;-3.39;85.07;100922.97;1691100;84;21738;-79
2021/12/26 07:31:52;;;;;;;11.73;5.60;;;;;;;-3.40;85.05;100911.75;1690934;84;21046;-80
2021/12/26 07:34:19;;;;;;;9.55;5.62;;;;;;;-3.38;85.07;100924.39;1690757;84;21732;-79
2021/12/26 07:36:45;;;;;;;8.53;5.40;;;;;;;-3.37;85.08;100921.02;1690769;84;21089;-79
2021/12/26 07:39:12;;;;;;;11.18;5.97;;;;;;;-3.36;85.07;100925.41;1690654;84;21622;-78
2021/12/26 07:41:40;;;;;;;11.22;6.15;;;;;;;-3.33;85.15;100935.94;1691321;84;21582;-84
2021/12/26 07:44:06;;;;;;;10.03;6.12;;;;;;;-3.32;85.14;100937.75;1691426;84;22324;-85
2021/12/26 07:46:33;;;;;;;9.60;5.92;;;;;;;-3.30;85.16;100931.81;1691492;84;21749;-85
2021/12/26 07:49:00;;;;;;;12.33;6.80;;;;;;;-3.29;85.16;100934.53;1691657;84;21655;-77
2021/12/26 07:51:26;;;;;;;15.55;7.58;;;;;;;-3.28;85.16;100923.87;1687621;83;21114;-79
2021/12/26 07:53:58;;;;;;;15.28;7.62;;;;;;;-3.28;85.18;100927.73;1684753;84;21102;-80
2021/12/26 07:56:21;;;;;;;12.80;6.55;;;;;;;-3.27;85.22;100929.52;1679813;85;21652;-80
2021/12/26 07:58:48;;;;;;;19.12;9.43;;;;;;;-3.23;85.27;100931.56;1681913;84;21756;-80
2021/12/26 08:01:15;;;;;;;15.95;9.58;;;;;;;-3.22;85.29;100936.84;1679402;85;21082;-85
2021/12/26 08:03:41;;;;;;;15.68;8.33;;;;;;;-3.20;85.31;100945.98;1686323;84;21054;-87
2021/12/26 08:06:13;;;;;;;14.75;8.00;;;;;;;-3.16;85.38;100936.05;1682276;84;21083;-85
2021/12/26 08:08:38;;;;;;;21.50;9.13;;;;;;;-3.15;85.41;100937.86;1681882;85;21090;-85
2021/12/26 08:11:05;;;;;;;14.85;8.48;;;;;;;-3.11;85.48;100937.73;1679093;85;22160;-85
2021/12/26 08:13:32;;;;;;;15.80;8.18;;;;;;;-3.07;85.52;100943.64;1684963;84;21070;-84
2021/12/26 08:15:59;;;;;;;15.93;9.18;;;;;;;-3.02;85.52;100950.08;1685334;84;21227;-88
2021/12/26 08:18:25;;;;;;;15.58;8.30;;;;;;;-2.98;85.57;100949.55;1684766;84;21265;-82
2021/12/26 08:20:52;;;;;;;16.40;8.80;;;;;;;-2.92;85.62;100955.98;1679805;84;22030;-84
2021/12/26 08:23:19;;;;;;;21.57;9.35;;;;;;;-2.87;85.68;100949.52;1674186;83;21969;-84
2021/12/26 08:25:45;;;;;;;18.95;9.53;;;;;;;-2.81;85.71;100943.59;1675022;85;21074;-83
2021/12/26 08:28:14;;;;;;;18.00;9.28;;;;;;;-2.77;85.71;100949.50;1675225;85;21141;-91
2021/12/26 08:30:42;;;;;;;16.65;8.60;;;;;;;-2.69;85.72;100959.14;1676168;84;21200;-80
2021/12/26 08:33:09;;;;;;;17.67;9.18;;;;;;;-2.64;85.74;100951.41;1615386;88;21201;-81
2021/12/26 08:35:36;;;;;;;16.62;8.60;;;;;;;-2.58;85.70;100959.62;1641935;87;21775;-81
2021/12/26 08:38:03;;;;;;;17.90;9.15;;;;;;;-2.52;85.70;100961.39;1672878;85;21114;-85
2021/12/26 08:40:29;;;;;;;19.37;9.48;;;;;;;-2.48;85.69;100963.83;1673025;84;21178;-81
2021/12/26 08:42:56;;;;;;;18.55;10.05;;;;;;;-2.42;85.76;100960.44;1672692;85;21780;-81
2021/12/26 08:45:23;;;;;;;19.75;10.25;;;;;;;-2.38;85.70;100958.65;1674408;84;21108;-82
2021/12/26 08:47:50;;;;;;;17.87;10.15;;;;;;;-2.34;85.68;100958.11;1641760;87;21805;-82
2021/12/26 08:50:17;;;;;;;17.80;10.05;;;;;;;-2.30;85.66;100961.44;1672666;85;21119;-81
2021/12/26 08:52:43;;;;;;;18.55;10.13;;;;;;;-2.25;85.65;100965.29;1672486;84;21635;-83
2021/12/26 08:55:10;;;;;;;16.90;10.40;;;;;;;-2.19;85.61;100976.48;1672932;85;21111;-83
2021/12/26 08:57:37;;;;;;;20.97;10.28;;;;;;;-2.15;85.54;100974.65;1642129;87;21065;-82
2021/12/26 09:00:06;;;;;;;18.25;10.08;;;;;;;-2.13;85.47;100978.24;1672823;84;22658;-84
2021/12/26 09:02:32;;;;;;;20.70;10.48;;;;;;;-2.10;85.39;100986.60;1641689;87;21097;-80
2021/12/26 09:04:59;;;;;;;18.90;10.00;;;;;;;-2.06;85.36;100989.96;1672915;84;21095;-83
2021/12/26 09:07:25;;;;;;;22.77;11.48;;;;;;;-2.04;85.36;100991.88;1656535;85;21199;-81
2021/12/26 09:09:53;;;;;;;23.27;11.25;;;;;;;-2.01;85.36;100989.91;1663493;86;21104;-82
2021/12/26 09:12:19;;;;;;;21.27;11.18;;;;;;;-1.98;85.30;100986.30;1634868;86;21743;-83
2021/12/26 09:14:46;;;;;;;24.25;11.95;;;;;;;-1.96;85.29;100988.20;1677313;84;21008;-84
2021/12/26 09:17:12;;;;;;;21.17;11.48;;;;;;;-1.89;85.34;100993.88;1634906;86;21104;-82
2021/12/26 09:19:39;;;;;;;21.45;11.25;;;;;;;-1.86;85.35;100988.56;1677553;84;21074;-82
2021/12/26 09:22:07;;;;;;;24.82;12.80;;;;;;;-1.84;85.29;100989.58;1634923;86;21092;-83
2021/12/26 09:24:35;;;;;;;36.10;20.70;;;;;;;-1.81;85.23;100996.65;1658112;86;22456;-82
2021/12/26 09:27:01;;;;;;;23.18;12.35;;;;;;;-1.79;85.26;100999.84;1637492;86;21097;-85
2021/12/26 09:29:28;;;;;;;26.30;13.55;;;;;;;-1.73;85.24;101008.86;1658519;85;21062;-84
2021/12/26 09:31:56;;;;;;;21.23;11.60;;;;;;;-1.70;85.26;101008.70;1658372;86;21098;-84
2021/12/26 09:34:24;;;;;;;21.95;11.95;;;;;;;-1.66;85.24;101012.42;1657955;85;21338;-83
2021/12/26 09:36:50;;;;;;;22.82;12.70;;;;;;;-1.63;85.25;101014.86;1657171;84;22794;-84
2021/12/26 09:39:17;;;;;;;25.10;12.95;;;;;;;-1.60;85.16;101013.78;1678850;84;21133;-84
2021/12/26 09:41:44;;;;;;;20.50;11.95;;;;;;;-1.56;85.19;101021.38;1635443;87;21099;-83
2021/12/26 09:44:11;;;;;;;23.38;13.03;;;;;;;-1.54;85.09;101018.92;1652734;86;21698;-79
2021/12/26 09:46:37;;;;;;;23.62;12.78;;;;;;;-1.54;85.06;101003.03;1651318;85;21569;-77
2021/12/26 09:49:04;;;;;;;23.65;11.80;;;;;;;-1.51;85.02;101017.88;1659307;86;21761;-79
2021/12/26 09:51:31;;;;;;;23.65;12.78;;;;;;;-1.51;84.98;101021.36;1649049;86;21533;-79
2021/12/26 09:53:58;;;;;;;27.02;12.37;;;;;;;-1.51;84.93;101023.94;1649462;86;21121;-79
2021/12/26 09:56:25;;;;;;;22.40;14.13;;;;;;;-1.49;84.95;101022.38;1662940;84;21082;-77
2021/12/26 09:59:00;;;;;;;28.07;15.00;;;;;;;-1.47;84.99;101024.68;1662219;84;21058;-79
2021/12/26 10:01:37;;;;;;;27.93;15.80;;;;;;;-1.46;84.93;101024.31;1653759;86;21762;-78
2021/12/26 10:04:25;;;;;;;25.55;13.53;;;;;;;-1.44;85.03;101018.88;1650275;86;21097;-80
2021/12/26 10:07:14;;;;;;;24.70;13.20;;;;;;;-1.41;85.01;101029.41;1662649;84;21639;-76
2021/12/26 10:09:44;;;;;;;23.60;13.20;;;;;;;-1.36;85.08;101034.55;1625735;86;21105;-77
2021/12/26 10:12:15;;;;;;;24.02;12.73;;;;;;;-1.33;85.03;101039.04;1661735;84;21146;-76
2021/12/26 10:14:40;;;;;;;23.87;12.53;;;;;;;-1.31;85.03;101025.88;1660848;86;21814;-76
2021/12/26 10:17:13;;;;;;;21.10;12.75;;;;;;;-1.32;85.03;101032.70;1661166;84;21666;-76
2021/12/26 10:19:46;;;;;;;21.15;12.60;;;;;;;-1.27;85.08;101026.22;1661770;86;21445;-76
2021/12/26 10:22:17;;;;;;;23.90;12.88;;;;;;;-1.24;85.10;101031.63;1660810;85;21206;-76
2021/12/26 10:24:48;;;;;;;25.00;13.68;;;;;;;-1.21;85.09;101036.13;1655333;86;21107;-77
2021/12/26 10:27:23;;;;;;;23.27;12.85;;;;;;;-1.20;85.11;101032.38;1656466;86;21767;-77
2021/12/26 10:29:54;;;;;;;21.27;12.53;;;;;;;-1.14;85.12;101033.23;1656611;86;21089;-77
2021/12/26 10:32:38;;;;;;;22.95;13.32;;;;;;;-1.11;85.08;101036.02;1656275;85;21109;-77
2021/12/26 10:35:14;;;;;;;22.37;13.50;;;;;;;-1.09;85.05;101029.33;1656343;86;21166;-77
2021/12/26 10:37:47;;;;;;;25.62;12.82;;;;;;;-1.07;85.01;101030.34;1656488;86;21109;-77
2021/12/26 10:40:21;;;;;;;25.85;14.60;;;;;;;-1.06;85.02;101033.41;1656495;86;22011;-77
2021/12/26 10:42:52;;;;;;;24.18;13.85;;;;;;;-1.04;84.99;101037.00;1656391;85;21184;-77
2021/12/26 10:45:21;;;;;;;25.82;13.40;;;;;;;-1.03;84.93;101035.34;1655669;86;21114;-77
2021/12/26 10:48:00;;;;;;;25.68;14.80;;;;;;;-1.01;84.96;101039.83;1656599;86;21825;-77
2021/12/26 10:50:29;;;;;;;29.27;13.90;;;;;;;-0.99;84.98;101030.52;1656645;85;21091;-77
2021/12/26 10:53:05;;;;;;;27.30;14.43;;;;;;;-0.96;84.92;101037.98;1656386;86;21824;-77
2021/12/26 10:55:38;;;;;;;22.62;13.20;;;;;;;-0.94;84.97;101037.30;1637347;86;21110;-76
2021/12/26 10:58:07;;;;;;;27.60;14.80;;;;;;;-0.91;84.94;101036.66;1656740;85;29909;-76
2021/12/26 11:00:37;;;;;;;23.42;13.68;;;;;;;-0.88;84.92;101038.16;1656598;86;21595;-76
2021/12/26 11:03:11;;;;;;;28.65;15.45;;;;;;;-0.89;84.85;101037.67;1656468;86;21150;-79
2021/12/26 11:05:43;;;;;;;27.00;15.08;;;;;;;-0.87;84.80;101037.39;1656340;86;21784;-77
2021/12/26 11:08:17;;;;;;;29.15;14.83;;;;;;;-0.86;84.84;101038.80;1656938;85;21082;-77
2021/12/26 11:10:50;;;;;;;31.77;17.15;;;;;;;-0.82;84.84;101033.47;1656790;86;21686;-76
2021/12/26 11:13:27;;;;;;;31.50;17.12;;;;;;;-0.82;84.79;101030.89;1656664;86;21106;-76
2021/12/26 11:16:07;;;;;;;28.45;16.12;;;;;;;-0.80;84.74;101032.79;1655881;86;21117;-76
2021/12/26 11:18:37;;;;;;;31.97;18.00;;;;;;;-0.79;84.72;101039.77;1656638;86;22608;-76
2021/12/26 11:21:09;;;;;;;31.02;18.07;;;;;;;-0.75;84.73;101043.48;1656501;86;21189;-79
2021/12/26 11:23:42;;;;;;;29.07;15.40;;;;;;;-0.74;84.67;101044.38;1656669;85;21596;-76
2021/12/26 11:26:10;;;;;;;29.77;17.82;;;;;;;-0.73;84.67;101038.04;1655765;85;21075;-79